Time;durP1;ratioP1;P1;durP2;ratioP2;P2;SDS_P1;SDS_P2;PMS_P1;PMS_P2;Temp;Humidity;BMP_temperature;BMP_pressure;BME280_temperature;BME280_humidity;BME280_pressure;Samples;Min_cycle;Max_cycle;Signal;HPM_P1;HPM_P2
2023/05/17 00:01:05;;;;;;;13.97;9.03;;;10.40;99.90;;;;;;5109640;28;20267;-72
2023/05/17 00:03:31;;;;;;;15.27;10.13;;;10.40;99.90;;;;;;5098590;28;21104;-72
2023/05/17 00:05:56;;;;;;;20.27;10.52;;;10.40;99.90;;;;;;5109676;28;20267;-72
2023/05/17 00:08:22;;;;;;;28.77;13.45;;;10.40;99.90;;;;;;5103016;28;20193;-74
2023/05/17 00:10:47;;;;;;;21.98;15.65;;;10.30;99.90;;;;;;5101353;28;20203;-73
2023/05/17 00:13:13;;;;;;;18.47;13.20;;;10.30;99.90;;;;;;5109354;28;20215;-72
2023/05/17 00:15:39;;;;;;;18.63;8.90;;;10.30;99.90;;;;;;5115790;28;20267;-72
2023/05/17 00:18:04;;;;;;;7.03;6.23;;;10.20;99.90;;;;;;5092142;28;20244;-73
2023/05/17 00:20:30;;;;;;;14.80;8.35;;;10.10;99.90;;;;;;5115435;28;20721;-72
2023/05/17 00:22:56;;;;;;;13.33;6.87;;;9.90;99.90;;;;;;5115871;28;20601;-72
2023/05/17 00:25:22;;;;;;;14.55;5.75;;;9.90;99.90;;;;;;5115614;28;20229;-72
2023/05/17 00:27:47;;;;;;;6.63;4.65;;;9.90;99.90;;;;;;5094627;28;20191;-73
2023/05/17 00:30:13;;;;;;;8.80;4.93;;;9.80;99.90;;;;;;5111702;28;20220;-73
2023/05/17 00:32:39;;;;;;;11.57;5.43;;;9.80;99.90;;;;;;5107110;28;20208;-72
2023/05/17 00:35:05;;;;;;;6.95;5.88;;;9.80;99.90;;;;;;5108993;28;20194;-72
2023/05/17 00:37:30;;;;;;;7.78;5.45;;;9.80;99.90;;;;;;5090456;28;20184;-72
2023/05/17 00:39:56;;;;;;;11.93;6.10;;;9.70;99.90;;;;;;5112450;28;20189;-73
2023/05/17 00:42:22;;;;;;;13.32;8.27;;;9.70;99.90;;;;;;5107699;28;20192;-72
2023/05/17 00:44:47;;;;;;;18.90;8.65;;;9.70;99.90;;;;;;5115085;28;20626;-72
2023/05/17 00:47:13;;;;;;;18.02;10.10;;;9.70;99.90;;;;;;5087732;28;20191;-72
2023/05/17 00:49:39;;;;;;;13.82;9.88;;;9.70;99.90;;;;;;5086228;28;20263;-73
2023/05/17 00:52:05;;;;;;;21.27;11.60;;;9.70;99.90;;;;;;5104926;28;20207;-73
2023/05/17 00:54:32;;;;;;;18.83;10.60;;;9.70;99.90;;;;;;5109580;28;20211;-73
2023/05/17 00:57:00;;;;;;;24.77;13.17;;;9.70;99.90;;;;;;5091221;28;20187;-73
2023/05/17 00:59:26;;;;;;;23.63;14.97;;;9.70;99.90;;;;;;5112528;28;20243;-73
2023/05/17 01:01:53;;;;;;;19.07;12.10;;;9.70;99.90;;;;;;5106112;28;20188;-72
2023/05/17 01:04:19;;;;;;;26.17;13.50;;;9.70;99.90;;;;;;5102280;28;20212;-72
2023/05/17 01:06:45;;;;;;;17.57;12.23;;;9.60;99.90;;;;;;5099484;28;20177;-74
2023/05/17 01:09:11;;;;;;;26.43;13.90;;;9.60;99.90;;;;;;5099313;28;20185;-73
2023/05/17 01:11:55;;;;;;;30.30;19.60;;;9.50;99.90;;;;;;5087206;28;20661;-72
2023/05/17 01:14:29;;;;;;;23.93;19.27;;;9.60;99.90;;;;;;5102303;28;20231;-72
2023/05/17 01:17:04;;;;;;;24.27;17.53;;;9.50;99.90;;;;;;5104438;28;20235;-73
2023/05/17 01:19:56;;;;;;;30.70;17.70;;;9.50;99.90;;;;;;5102687;28;20613;-73
2023/05/17 01:22:44;;;;;;;24.03;13.83;;;9.50;99.90;;;;;;5088787;28;20697;-72
2023/05/17 01:25:35;;;;;;;22.63;7.87;;;9.50;99.90;;;;;;5099747;28;20177;-73
2023/05/17 01:28:02;;;;;;;15.03;7.67;;;9.50;99.90;;;;;;5109269;28;20176;-72
2023/05/17 01:30:30;;;;;;;14.90;6.53;;;9.50;99.90;;;;;;5103341;28;20184;-75
2023/05/17 01:32:57;;;;;;;12.10;6.53;;;9.50;99.90;;;;;;5081916;28;20204;-72
2023/05/17 01:35:24;;;;;;;10.63;5.83;;;9.40;99.90;;;;;;5106966;28;20185;-72
2023/05/17 01:37:53;;;;;;;11.87;6.60;;;9.50;99.90;;;;;;5107284;28;20300;-72
2023/05/17 01:40:20;;;;;;;8.47;5.73;;;9.40;99.90;;;;;;5078469;28;20180;-72
2023/05/17 01:42:52;;;;;;;8.47;6.17;;;9.40;99.90;;;;;;5101987;28;20199;-72
2023/05/17 01:45:30;;;;;;;10.00;6.60;;;9.40;99.90;;;;;;5110716;28;20534;-72
2023/05/17 01:48:05;;;;;;;8.30;6.17;;;9.40;99.90;;;;;;5094259;28;20632;-72
2023/05/17 01:50:33;;;;;;;14.37;7.13;;;9.30;99.90;;;;;;5096801;28;20602;-73
2023/05/17 01:53:06;;;;;;;14.27;6.27;;;9.40;99.90;;;;;;5107361;28;20257;-72
2023/05/17 01:55:50;;;;;;;9.73;6.90;;;9.30;99.90;;;;;;5101597;28;20180;-72
2023/05/17 01:58:20;;;;;;;15.23;7.20;;;9.30;99.90;;;;;;5107080;28;20267;-72
2023/05/17 02:00:47;;;;;;;6.83;6.13;;;9.20;99.90;;;;;;5110722;28;20264;-72
2023/05/17 02:03:17;;;;;;;13.20;8.00;;;9.20;99.90;;;;;;5101380;28;20184;-72
2023/05/17 02:05:43;;;;;;;9.30;6.13;;;9.20;99.90;;;;;;5110310;28;20263;-72
2023/05/17 02:08:09;;;;;;;16.57;6.37;;;9.30;99.90;;;;;;5113857;28;20267;-72
2023/05/17 02:10:35;;;;;;;10.57;6.57;;;9.20;99.90;;;;;;5102691;28;20215;-72
2023/05/17 02:13:01;;;;;;;13.07;5.97;;;9.20;99.90;;;;;;5111571;28;20215;-73
2023/05/17 02:15:26;;;;;;;11.43;6.77;;;9.20;99.90;;;;;;5111379;28;20205;-79
2023/05/17 02:17:52;;;;;;;10.23;7.20;;;9.10;99.90;;;;;;5101623;28;20238;-73
2023/05/17 02:20:18;;;;;;;11.77;6.27;;;9.20;99.90;;;;;;5106222;28;20264;-73
2023/05/17 02:22:43;;;;;;;15.13;6.00;;;9.10;99.90;;;;;;5112668;28;20191;-73
2023/05/17 02:25:09;;;;;;;12.67;5.83;;;9.00;99.90;;;;;;5086645;28;20195;-71
2023/05/17 02:27:35;;;;;;;14.50;6.63;;;9.10;99.90;;;;;;5096570;28;20325;-73
2023/05/17 02:30:02;;;;;;;11.47;6.77;;;9.10;99.90;;;;;;5093622;28;20228;-71
2023/05/17 02:32:28;;;;;;;11.13;6.00;;;9.00;99.90;;;;;;5110104;28;20204;-74
2023/05/17 02:34:54;;;;;;;13.00;6.57;;;9.10;99.90;;;;;;5106249;28;20195;-72
2023/05/17 02:37:20;;;;;;;21.27;6.53;;;9.10;99.90;;;;;;5100078;28;20202;-72
2023/05/17 02:39:46;;;;;;;11.57;6.27;;;9.00;99.90;;;;;;5099752;28;20648;-72
2023/05/17 02:42:11;;;;;;;10.63;6.97;;;9.00;99.90;;;;;;5100594;28;20287;-72
2023/05/17 02:44:37;;;;;;;15.60;7.03;;;9.00;99.90;;;;;;5093276;28;20261;-72
2023/05/17 02:47:03;;;;;;;12.40;6.90;;;9.00;99.90;;;;;;5109525;28;20519;-72
2023/05/17 02:49:28;;;;;;;16.23;7.10;;;9.00;99.90;;;;;;5103428;28;20192;-77
2023/05/17 02:51:54;;;;;;;18.57;6.77;;;9.00;99.90;;;;;;5104842;28;20215;-72
2023/05/17 02:54:20;;;;;;;19.90;7.13;;;9.00;99.90;;;;;;5083293;28;20244;-72
2023/05/17 02:56:46;;;;;;;14.37;7.10;;;9.00;99.90;;;;;;5105901;28;20184;-72
2023/05/17 02:59:12;;;;;;;15.53;8.17;;;8.90;99.90;;;;;;5080898;28;20195;-72
2023/05/17 03:01:37;;;;;;;16.70;7.87;;;8.90;99.90;;;;;;5102542;28;20219;-72
2023/05/17 03:04:03;;;;;;;13.60;7.97;;;8.90;99.90;;;;;;5077663;28;20189;-71
2023/05/17 03:06:30;;;;;;;14.30;7.13;;;9.00;99.90;;;;;;5084332;28;20643;-72
2023/05/17 03:08:55;;;;;;;24.90;8.37;;;8.90;99.90;;;;;;5095371;28;20204;-73
2023/05/17 03:11:21;;;;;;;16.07;7.70;;;8.80;99.90;;;;;;5102960;28;20212;-71
2023/05/17 03:13:50;;;;;;;16.97;8.40;;;8.80;99.90;;;;;;5075236;28;20278;-71
2023/05/17 03:16:16;;;;;;;16.87;9.40;;;8.80;99.90;;;;;;5084676;28;20628;-71
2023/05/17 03:18:42;;;;;;;15.77;8.53;;;8.80;99.90;;;;;;5066805;28;20239;-71
2023/05/17 03:21:08;;;;;;;10.30;7.40;;;8.90;99.90;;;;;;5094125;28;20637;-71
2023/05/17 03:23:33;;;;;;;11.80;8.23;;;8.80;99.90;;;;;;5106039;28;20256;-72
2023/05/17 03:25:59;;;;;;;10.83;6.93;;;8.80;99.90;;;;;;5098984;28;20633;-72
2023/05/17 03:28:25;;;;;;;13.50;8.27;;;8.80;99.90;;;;;;5110466;28;20188;-72
2023/05/17 03:30:51;;;;;;;11.97;8.07;;;8.80;99.90;;;;;;5085729;28;20184;-72
2023/05/17 03:33:18;;;;;;;20.40;9.70;;;8.70;99.90;;;;;;5094758;28;20238;-72
2023/05/17 03:35:45;;;;;;;15.00;8.53;;;8.70;99.90;;;;;;5112027;28;20215;-72
2023/05/17 03:38:11;;;;;;;14.53;7.93;;;8.80;99.90;;;;;;5103606;28;20656;-72
2023/05/17 03:40:37;;;;;;;14.70;8.60;;;8.80;99.90;;;;;;5078675;28;20184;-72
2023/05/17 03:43:03;;;;;;;18.03;8.07;;;8.70;99.90;;;;;;5076664;28;20189;-78
2023/05/17 03:45:29;;;;;;;21.37;9.27;;;8.80;99.90;;;;;;5100864;28;20192;-73
2023/05/17 03:47:55;;;;;;;15.53;8.87;;;8.80;99.90;;;;;;5104094;28;20185;-73
2023/05/17 03:50:20;;;;;;;16.43;7.83;;;8.90;99.90;;;;;;5103564;28;20267;-70
2023/05/17 03:52:46;;;;;;;14.50;7.87;;;8.90;99.90;;;;;;5087890;28;20257;-72
2023/05/17 03:55:12;;;;;;;20.23;8.07;;;9.00;99.90;;;;;;5103898;28;20196;-69
2023/05/17 03:57:37;;;;;;;13.60;7.07;;;9.10;99.90;;;;;;5080459;28;20189;-69
2023/05/17 04:00:09;;;;;;;12.27;9.00;;;9.10;99.90;;;;;;5084142;28;20189;-68
2023/05/17 04:02:35;;;;;;;15.23;8.67;;;9.10;99.90;;;;;;5098763;28;20635;-69
2023/05/17 04:05:01;;;;;;;19.80;8.77;;;9.20;99.90;;;;;;5106042;28;20254;-72
2023/05/17 04:07:27;;;;;;;15.40;8.50;;;9.20;99.90;;;;;;5115556;28;20180;-72
2023/05/17 04:09:58;;;;;;;22.83;9.73;;;9.20;99.90;;;;;;5109906;28;20190;-71
2023/05/17 04:12:23;;;;;;;21.83;9.20;;;9.30;99.90;;;;;;5105391;28;20197;-68
2023/05/17 04:14:49;;;;;;;21.75;10.75;;;9.40;99.90;;;;;;5110016;28;20236;-70
2023/05/17 04:17:15;;;;;;;19.90;10.00;;;9.50;99.90;;;;;;5114790;28;20184;-71
2023/05/17 04:19:41;;;;;;;14.77;7.95;;;9.50;99.90;;;;;;5110937;28;20231;-70
2023/05/17 04:22:06;;;;;;;25.30;9.48;;;9.50;99.90;;;;;;5112599;28;20203;-70
2023/05/17 04:24:32;;;;;;;17.23;8.48;;;9.70;99.90;;;;;;5092821;28;20180;-72
2023/05/17 04:26:58;;;;;;;13.30;7.45;;;9.70;99.90;;;;;;5111003;28;20511;-73
2023/05/17 04:29:24;;;;;;;16.88;8.18;;;9.70;99.90;;;;;;5102068;28;20206;-74
2023/05/17 04:31:50;;;;;;;16.00;8.55;;;9.70;99.90;;;;;;5109434;28;20204;-72
2023/05/17 04:34:15;;;;;;;20.08;8.25;;;9.80;99.90;;;;;;5101892;28;20257;-77
2023/05/17 04:36:41;;;;;;;28.10;13.07;;;10.00;99.90;;;;;;5086989;28;20587;-75
2023/05/17 04:39:06;;;;;;;11.93;8.97;;;10.20;99.90;;;;;;5083454;28;20234;-71
2023/05/17 04:41:32;;;;;;;12.25;7.28;;;10.30;99.90;;;;;;5087329;28;20640;-73
2023/05/17 04:43:58;;;;;;;17.02;8.80;;;10.20;99.90;;;;;;5065501;28;20189;-70
2023/05/17 04:46:24;;;;;;;12.55;7.13;;;10.20;99.90;;;;;;5104683;28;20310;-76
2023/05/17 04:48:50;;;;;;;15.43;7.82;;;10.20;99.90;;;;;;5079644;28;20188;-75
2023/05/17 04:51:15;;;;;;;21.33;8.93;;;10.30;99.90;;;;;;5114368;28;20269;-72
2023/05/17 04:53:41;;;;;;;18.77;8.25;;;10.30;99.90;;;;;;5093921;28;20195;-72
2023/05/17 04:56:06;;;;;;;18.45;8.27;;;10.40;99.90;;;;;;5076498;28;20184;-72
2023/05/17 04:58:32;;;;;;;12.02;7.72;;;10.60;99.90;;;;;;5091450;28;20188;-72
2023/05/17 05:00:58;;;;;;;15.02;7.75;;;10.70;99.90;;;;;;5114716;28;20180;-72
2023/05/17 05:03:23;;;;;;;15.25;7.78;;;10.80;99.90;;;;;;5112859;28;20219;-72
2023/05/17 05:05:49;;;;;;;13.52;7.00;;;10.90;99.90;;;;;;5114276;28;20633;-80
2023/05/17 05:08:15;;;;;;;21.73;8.32;;;10.90;99.90;;;;;;5114528;28;20195;-73
2023/05/17 05:10:41;;;;;;;16.85;9.05;;;11.00;99.90;;;;;;5113029;28;20180;-71
2023/05/17 05:13:06;;;;;;;12.75;7.10;;;11.30;99.90;;;;;;5114691;28;20252;-73
2023/05/17 05:15:32;;;;;;;12.95;8.10;;;11.40;99.90;;;;;;5094644;28;20199;-76
2023/05/17 05:17:58;;;;;;;16.00;7.88;;;11.40;99.90;;;;;;5094612;28;20231;-78
2023/05/17 05:20:23;;;;;;;18.90;7.70;;;11.50;99.90;;;;;;5106999;28;20180;-73
2023/05/17 05:22:49;;;;;;;13.38;8.07;;;11.70;99.90;;;;;;5113786;28;20188;-71
2023/05/17 05:25:14;;;;;;;19.10;8.07;;;11.80;99.90;;;;;;5113257;28;20184;-73
2023/05/17 05:27:40;;;;;;;10.95;6.88;;;12.00;99.90;;;;;;5095480;28;20176;-73
2023/05/17 05:30:07;;;;;;;16.70;6.93;;;11.80;99.90;;;;;;5097562;28;20184;-76
2023/05/17 05:32:33;;;;;;;17.13;7.38;;;11.90;99.90;;;;;;5085075;28;20645;-76
2023/05/17 05:34:58;;;;;;;19.67;6.57;;;12.10;99.90;;;;;;5080317;28;20299;-77
2023/05/17 05:37:24;;;;;;;10.57;6.43;;;12.20;99.90;;;;;;5106676;28;20180;-76
2023/05/17 05:39:50;;;;;;;14.35;6.72;;;12.30;99.90;;;;;;5086701;28;20201;-76
2023/05/17 05:42:15;;;;;;;18.77;5.53;;;12.50;99.90;;;;;;5101066;28;20555;-76
2023/05/17 05:44:41;;;;;;;23.35;7.32;;;12.80;99.90;;;;;;5087761;28;20197;-77
2023/05/17 05:47:07;;;;;;;10.27;7.38;;;12.90;99.90;;;;;;5102424;28;20244;-78
2023/05/17 05:49:32;;;;;;;19.10;7.25;;;13.20;99.90;;;;;;5113977;28;20186;-76
2023/05/17 05:51:58;;;;;;;15.40;5.78;;;13.40;99.90;;;;;;5101361;28;20341;-76
2023/05/17 05:54:24;;;;;;;10.27;7.13;;;13.60;99.90;;;;;;5102698;28;20199;-78
2023/05/17 05:56:50;;;;;;;10.30;5.53;;;13.70;99.90;;;;;;5082301;28;20180;-76
2023/05/17 05:59:16;;;;;;;14.65;6.30;;;13.80;99.90;;;;;;5096067;28;20180;-79
2023/05/17 06:01:42;;;;;;;13.32;6.10;;;13.90;99.90;;;;;;5095893;28;20739;-75
2023/05/17 06:04:08;;;;;;;14.70;5.53;;;13.70;99.90;;;;;;5094175;28;20189;-78
2023/05/17 06:06:34;;;;;;;9.20;6.03;;;13.70;99.90;;;;;;5102554;28;20579;-78
2023/05/17 06:09:00;;;;;;;10.80;4.70;;;13.80;99.90;;;;;;5096996;28;20177;-75
2023/05/17 06:11:25;;;;;;;9.45;5.35;;;14.00;99.90;;;;;;5097945;28;20180;-78
2023/05/17 06:13:51;;;;;;;9.05;6.03;;;14.00;99.90;;;;;;5081364;28;20192;-79
2023/05/17 06:16:17;;;;;;;9.88;5.43;;;14.20;99.90;;;;;;5083203;28;20687;-76
2023/05/17 06:18:42;;;;;;;11.35;5.13;;;14.40;99.90;;;;;;5108249;28;20773;-77
2023/05/17 06:21:08;;;;;;;11.65;4.65;;;14.40;99.90;;;;;;5081779;28;20189;-77
2023/05/17 06:23:34;;;;;;;10.75;5.70;;;14.50;99.90;;;;;;5100607;28;20179;-77
2023/05/17 06:25:59;;;;;;;19.95;5.75;;;14.50;99.90;;;;;;5083515;28;20208;-76
2023/05/17 06:28:25;;;;;;;14.57;5.32;;;14.50;99.90;;;;;;5088711;28;20229;-77
2023/05/17 06:30:51;;;;;;;21.20;6.38;;;14.60;99.90;;;;;;5109960;28;20210;-76
2023/05/17 06:33:16;;;;;;;12.45;5.93;;;14.80;99.90;;;;;;5096608;28;20201;-78
2023/05/17 06:35:42;;;;;;;14.77;5.00;;;14.90;99.90;;;;;;5076179;28;20181;-76
2023/05/17 06:38:08;;;;;;;13.52;4.95;;;15.10;99.90;;;;;;5105451;28;20245;-76
2023/05/17 06:40:33;;;;;;;8.70;5.20;;;15.40;99.90;;;;;;5065583;28;20187;-78
2023/05/17 06:43:01;;;;;;;11.25;5.30;;;15.80;99.90;;;;;;5102728;28;20262;-77
2023/05/17 06:45:27;;;;;;;14.73;4.28;;;15.80;99.90;;;;;;5097170;28;20177;-78
2023/05/17 06:47:52;;;;;;;12.68;5.60;;;15.90;99.90;;;;;;5082924;28;20632;-78
2023/05/17 06:50:18;;;;;;;13.95;4.40;;;15.70;99.90;;;;;;5110557;28;20215;-77
2023/05/17 06:52:44;;;;;;;12.32;5.63;;;15.50;99.90;;;;;;5103308;28;20201;-78
2023/05/17 06:55:09;;;;;;;10.27;5.03;;;15.30;99.90;;;;;;5097176;28;20546;-78
2023/05/17 06:57:35;;;;;;;16.00;6.70;;;15.00;99.90;;;;;;5103940;28;20188;-79
2023/05/17 07:00:05;;;;;;;10.60;6.38;;;15.00;99.90;;;;;;5095736;28;20191;-77
2023/05/17 07:02:31;;;;;;;12.75;5.03;;;15.00;99.90;;;;;;5107247;28;20184;-76
2023/05/17 07:04:57;;;;;;;13.73;4.88;;;15.00;99.90;;;;;;5104011;28;20183;-76
2023/05/17 07:07:22;;;;;;;19.17;7.30;;;15.10;99.90;;;;;;5103192;28;20207;-76
2023/05/17 07:09:48;;;;;;;8.48;4.90;;;15.30;99.90;;;;;;5068183;28;20199;-78
2023/05/17 07:12:14;;;;;;;8.40;4.53;;;15.20;99.90;;;;;;5102018;28;20239;-75
2023/05/17 07:14:39;;;;;;;19.80;5.53;;;15.30;99.90;;;;;;5080217;28;20777;-79
2023/05/17 07:17:05;;;;;;;13.60;4.75;;;15.70;99.90;;;;;;5107863;28;20378;-78
2023/05/17 07:19:31;;;;;;;13.27;5.00;;;16.40;99.90;;;;;;5077683;28;20224;-77
2023/05/17 07:21:56;;;;;;;10.30;5.05;;;17.60;99.90;;;;;;5102084;28;20187;-77
2023/05/17 07:24:22;;;;;;;7.93;4.10;;;19.70;99.90;;;;;;5080928;28;20173;-77
2023/05/17 07:26:48;;;;;;;8.18;4.47;;;21.10;99.90;;;;;;5117052;28;20191;-76
2023/05/17 07:29:13;;;;;;;12.70;5.57;;;21.90;99.90;;;;;;5096935;28;20195;-77
2023/05/17 07:31:39;;;;;;;12.23;5.60;;;22.50;99.90;;;;;;5107510;28;20209;-76
2023/05/17 07:34:05;;;;;;;11.38;5.93;;;24.00;99.90;;;;;;5099219;28;20650;-77
2023/05/17 07:36:30;;;;;;;14.13;4.90;;;25.40;99.90;;;;;;5102791;28;20183;-76
2023/05/17 07:38:57;;;;;;;13.90;3.67;;;26.70;99.90;;;;;;5087007;28;20218;-76
2023/05/17 07:41:22;;;;;;;14.25;5.78;;;26.20;99.90;;;;;;5099535;28;20184;-75
2023/05/17 07:43:49;;;;;;;6.25;3.88;;;25.50;99.90;;;;;;5112931;28;20644;-78
2023/05/17 07:46:15;;;;;;;14.88;5.20;;;25.30;99.90;;;;;;5105354;28;20223;-77
2023/05/17 07:48:40;;;;;;;22.00;4.97;;;25.00;99.90;;;;;;5097844;28;20207;-77
2023/05/17 07:51:06;;;;;;;10.43;4.60;;;24.00;99.90;;;;;;5107021;28;20175;-77
2023/05/17 07:53:32;;;;;;;10.45;5.68;;;22.60;99.90;;;;;;5101986;28;20679;-78
2023/05/17 07:55:57;;;;;;;8.05;4.57;;;21.20;99.90;;;;;;5114943;28;20196;-78
2023/05/17 07:58:23;;;;;;;10.57;5.47;;;20.70;99.90;;;;;;5110845;28;20184;-77
2023/05/17 08:00:49;;;;;;;7.18;4.90;;;22.20;99.90;;;;;;5111029;28;20187;-78
2023/05/17 08:03:14;;;;;;;9.13;4.20;;;23.60;99.90;;;;;;5111363;28;20454;-77
2023/05/17 08:05:40;;;;;;;10.65;5.05;;;24.20;99.90;;;;;;5104580;28;20282;-76
2023/05/17 08:08:06;;;;;;;7.82;4.85;;;24.50;99.90;;;;;;5084423;28;20180;-77
2023/05/17 08:10:36;;;;;;;7.47;4.85;;;24.40;99.90;;;;;;5106836;28;20541;-77
2023/05/17 08:13:03;;;;;;;14.63;5.57;;;23.40;99.90;;;;;;5090200;28;20251;-76
2023/05/17 08:15:29;;;;;;;10.50;5.28;;;22.00;99.90;;;;;;5100665;28;20184;-78
2023/05/17 08:17:55;;;;;;;7.22;5.00;;;20.80;99.90;;;;;;5082408;28;20189;-75
2023/05/17 08:20:21;;;;;;;11.93;4.88;;;20.50;99.90;;;;;;5105664;28;20637;-78
2023/05/17 08:22:47;;;;;;;5.72;3.88;;;21.10;99.90;;;;;;5108153;28;20668;-78
2023/05/17 08:25:12;;;;;;;18.00;5.80;;;21.40;99.90;;;;;;5097572;28;20181;-76
2023/05/17 08:27:38;;;;;;;7.00;3.95;;;21.70;99.90;;;;;;5108817;28;20187;-76
2023/05/17 08:30:05;;;;;;;4.80;3.10;;;22.00;99.90;;;;;;5086123;28;20185;-77
2023/05/17 08:32:30;;;;;;;10.15;3.50;;;22.60;99.90;;;;;;5101480;28;20212;-77
2023/05/17 08:34:57;;;;;;;10.77;3.28;;;23.40;99.90;;;;;;5103072;28;20621;-76
2023/05/17 08:37:23;;;;;;;7.60;3.78;;;24.10;99.90;;;;;;5113718;28;20183;-79
2023/05/17 08:39:50;;;;;;;4.82;3.13;;;24.80;99.90;;;;;;5078977;28;20186;-77
2023/05/17 08:42:21;;;;;;;5.32;3.13;;;24.60;99.90;;;;;;5078395;28;20184;-77
2023/05/17 08:44:48;;;;;;;5.80;2.60;;;25.50;99.90;;;;;;5101672;28;20653;-75
2023/05/17 08:47:24;;;;;;;3.50;2.40;;;25.30;99.90;;;;;;5091026;28;20180;-75
2023/05/17 08:49:53;;;;;;;3.85;1.85;;;24.20;99.90;;;;;;5095526;28;20179;-76
2023/05/17 08:52:20;;;;;;;4.07;2.03;;;24.30;99.90;;;;;;5105394;28;20219;-77
2023/05/17 08:54:47;;;;;;;3.15;1.55;;;24.20;99.90;;;;;;5079279;28;20195;-78
2023/05/17 08:57:14;;;;;;;2.38;2.08;;;24.00;99.90;;;;;;5101260;28;20542;-76
2023/05/17 08:59:41;;;;;;;2.92;2.10;;;23.20;99.90;;;;;;5102775;28;20226;-76
2023/05/17 09:02:07;;;;;;;5.65;2.45;;;21.70;99.90;;;;;;5105489;28;20345;-75
2023/05/17 09:04:33;;;;;;;4.25;2.13;;;21.50;99.90;;;;;;5102375;28;20645;-77
2023/05/17 09:06:59;;;;;;;9.23;1.90;;;21.50;99.90;;;;;;5108883;28;20188;-76
2023/05/17 09:09:25;;;;;;;6.43;2.13;;;21.10;99.90;;;;;;5080777;28;20187;-76
2023/05/17 09:11:51;;;;;;;4.47;2.30;;;20.40;99.90;;;;;;5099564;28;20692;-76
2023/05/17 09:14:17;;;;;;;6.38;1.88;;;21.30;99.90;;;;;;5097129;28;20196;-77
2023/05/17 09:16:42;;;;;;;5.53;2.47;;;21.10;99.90;;;;;;5100410;28;20717;-77
2023/05/17 09:19:15;;;;;;;19.40;4.47;;;20.80;99.90;;;;;;5114482;28;20314;-76
2023/05/17 09:21:45;;;;;;;6.63;3.38;;;20.20;99.90;;;;;;5105806;28;20199;-76
2023/05/17 09:24:11;;;;;;;14.38;3.55;;;19.80;99.90;;;;;;5096694;28;20184;-79
2023/05/17 09:26:41;;;;;;;9.00;3.80;;;19.10;99.90;;;;;;5108370;28;20172;-76
2023/05/17 09:29:12;;;;;;;6.30;2.67;;;19.20;99.90;;;;;;5107000;28;20172;-77
2023/05/17 09:31:39;;;;;;;6.60;2.47;;;19.10;99.90;;;;;;5100125;28;20755;-77
2023/05/17 09:34:06;;;;;;;14.63;2.88;;;18.90;99.90;;;;;;5092533;28;20530;-77
2023/05/17 09:36:34;;;;;;;7.85;2.85;;;19.00;99.90;;;;;;5083213;28;20180;-76
2023/05/17 09:39:04;;;;;;;9.55;3.78;;;19.10;99.90;;;;;;5094661;28;20555;-76
2023/05/17 09:41:31;;;;;;;2.88;2.33;;;19.10;99.90;;;;;;5080880;28;20177;-74
2023/05/17 09:43:59;;;;;;;5.40;2.33;;;18.50;99.90;;;;;;5105873;28;20218;-77
2023/05/17 09:46:25;;;;;;;4.60;2.72;;;17.90;99.90;;;;;;5094265;28;20179;-76
2023/05/17 09:48:55;;;;;;;2.85;1.88;;;17.70;99.90;;;;;;5096608;28;20184;-78
2023/05/17 09:51:33;;;;;;;4.80;2.38;;;17.30;99.90;;;;;;5106052;28;20272;-78
2023/05/17 09:53:59;;;;;;;3.72;2.40;;;17.20;99.90;;;;;;5094945;28;20265;-77
2023/05/17 09:56:29;;;;;;;4.05;2.05;;;17.40;99.90;;;;;;5100737;28;20208;-77
2023/05/17 09:58:55;;;;;;;4.93;2.08;;;17.80;99.90;;;;;;5098951;28;20191;-76
2023/05/17 10:01:24;;;;;;;2.85;2.55;;;17.80;99.90;;;;;;5113676;28;20176;-75
2023/05/17 10:03:50;;;;;;;2.47;2.05;;;17.40;99.90;;;;;;5102437;28;20182;-77
2023/05/17 10:06:19;;;;;;;4.45;2.45;;;17.70;99.90;;;;;;5098482;28;20184;-76
2023/05/17 10:08:48;;;;;;;3.38;1.92;;;18.10;99.90;;;;;;5103620;28;20176;-76
2023/05/17 10:11:13;;;;;;;5.13;1.80;;;18.20;99.90;;;;;;5088638;28;20187;-78
2023/05/17 10:13:42;;;;;;;4.15;1.88;;;18.00;99.90;;;;;;5101220;28;20223;-77
2023/05/17 10:16:09;;;;;;;4.30;2.75;;;18.00;99.90;;;;;;5097454;28;20188;-79
2023/05/17 10:18:37;;;;;;;9.98;3.25;;;17.90;99.90;;;;;;5088526;28;20581;-79
2023/05/17 10:21:03;;;;;;;3.55;2.15;;;18.20;99.90;;;;;;5109241;28;20195;-77
2023/05/17 10:23:31;;;;;;;7.65;2.08;;;18.20;99.90;;;;;;5078963;28;20230;-77
2023/05/17 10:25:58;;;;;;;4.45;2.20;;;18.10;99.90;;;;;;5101778;28;20185;-77
2023/05/17 10:28:26;;;;;;;6.18;2.45;;;17.80;99.90;;;;;;5112221;28;20559;-80
2023/05/17 10:30:53;;;;;;;5.20;2.20;;;18.00;99.90;;;;;;5111837;28;20180;-78
2023/05/17 10:33:20;;;;;;;4.35;1.88;;;18.10;99.90;;;;;;5095255;28;20261;-75
2023/05/17 10:35:48;;;;;;;2.00;1.75;;;18.40;99.90;;;;;;5109136;28;20258;-76
2023/05/17 10:38:13;;;;;;;2.95;1.70;;;18.40;99.90;;;;;;5098107;28;20180;-76
2023/05/17 10:40:40;;;;;;;9.38;2.53;;;18.20;99.90;;;;;;5080606;28;20210;-76
2023/05/17 10:43:08;;;;;;;5.70;2.13;;;18.20;99.90;;;;;;5077641;28;20204;-75
2023/05/17 10:45:35;;;;;;;2.05;1.88;;;18.00;99.90;;;;;;5095028;28;20526;-79
2023/05/17 10:48:04;;;;;;;5.05;1.92;;;17.80;99.90;;;;;;5104690;28;20222;-80
2023/05/17 10:50:31;;;;;;;4.80;1.60;;;17.60;99.90;;;;;;5098964;28;20624;-79
2023/05/17 10:52:58;;;;;;;4.97;1.50;;;17.70;99.90;;;;;;5094517;28;20222;-77
2023/05/17 10:55:39;;;;;;;1.85;1.45;;;18.00;99.90;;;;;;5081444;28;20603;-75
2023/05/17 10:58:15;;;;;;;7.30;1.77;;;18.20;99.90;;;;;;5101647;28;20273;-75
2023/05/17 11:00:42;;;;;;;5.45;2.38;;;18.20;99.90;;;;;;5093239;28;20168;-77
2023/05/17 11:03:28;;;;;;;2.97;1.42;;;17.80;99.90;;;;;;5101870;28;20215;-80
2023/05/17 11:06:09;;;;;;;5.78;1.90;;;18.00;99.90;;;;;;5108313;28;20179;-81
2023/05/17 11:08:35;;;;;;;4.40;1.65;;;18.30;99.90;;;;;;5111599;28;20180;-77
2023/05/17 11:11:13;;;;;;;5.22;1.88;;;18.20;99.90;;;;;;5064884;28;20544;-79
2023/05/17 11:13:55;;;;;;;2.22;1.42;;;18.00;99.90;;;;;;5080298;28;20649;-79
2023/05/17 11:16:26;;;;;;;3.45;1.52;;;18.00;99.90;;;;;;5096983;28;20282;-79
2023/05/17 11:18:54;;;;;;;8.30;2.60;;;18.10;99.90;;;;;;5107030;28;20220;-77
2023/05/17 11:21:21;;;;;;;1.42;1.20;;;17.70;99.90;;;;;;5082718;28;20192;-79
2023/05/17 11:23:53;;;;;;;7.65;1.73;;;17.60;99.90;;;;;;5100128;28;20565;-78
2023/05/17 11:26:25;;;;;;;3.80;1.80;;;17.70;99.90;;;;;;5111203;28;20280;-78
2023/05/17 11:29:09;;;;;;;6.13;1.88;;;17.60;99.90;;;;;;5103633;28;20180;-79
2023/05/17 11:31:36;;;;;;;3.13;1.55;;;17.70;99.90;;;;;;5097078;28;20555;-81
2023/05/17 11:34:03;;;;;;;4.45;1.65;;;17.30;99.90;;;;;;5108393;28;20288;-76
2023/05/17 11:36:30;;;;;;;5.88;1.38;;;17.40;99.90;;;;;;5098733;28;20184;-78
2023/05/17 11:39:17;;;;;;;4.68;2.00;;;17.40;99.90;;;;;;5094960;28;20196;-77
2023/05/17 11:41:53;;;;;;;6.47;1.85;;;17.70;99.90;;;;;;5109127;28;20188;-78
2023/05/17 11:44:24;;;;;;;3.17;1.30;;;17.70;99.90;;;;;;5102709;28;20180;-80
2023/05/17 11:46:50;;;;;;;4.82;1.80;;;17.70;99.90;;;;;;5104181;28;20177;-79
2023/05/17 11:49:17;;;;;;;4.82;1.52;;;17.80;99.90;;;;;;5093496;28;20180;-78
2023/05/17 11:51:45;;;;;;;2.50;1.23;;;18.00;99.90;;;;;;5082863;28;20272;-78
2023/05/17 11:54:13;;;;;;;1.67;1.23;;;17.60;99.90;;;;;;5096919;28;20172;-75
2023/05/17 11:56:39;;;;;;;8.38;1.33;;;17.50;99.90;;;;;;5104101;28;20628;-80
2023/05/17 11:59:05;;;;;;;3.53;1.30;;;17.60;99.90;;;;;;5075581;28;20554;-77
2023/05/17 12:01:48;;;;;;;2.63;1.80;;;17.70;99.90;;;;;;5094122;28;20187;-78
2023/05/17 12:04:25;;;;;;;1.95;1.38;;;17.50;99.90;;;;;;5102660;28;20181;-77
2023/05/17 12:06:52;;;;;;;2.83;1.40;;;17.30;99.90;;;;;;5101990;28;20188;-71
2023/05/17 12:09:17;;;;;;;3.75;1.10;;;17.40;99.90;;;;;;5096619;28;20188;-79
2023/05/17 12:11:43;;;;;;;7.60;1.67;;;17.20;99.90;;;;;;5107984;28;20216;-78
2023/05/17 12:14:13;;;;;;;3.30;1.45;;;17.30;99.90;;;;;;5097936;28;20177;-78
2023/05/17 12:16:41;;;;;;;4.90;2.20;;;17.40;99.90;;;;;;5115961;28;20203;-79
2023/05/17 12:19:17;;;;;;;3.72;1.50;;;17.40;99.90;;;;;;5108994;28;20227;-79
2023/05/17 12:21:43;;;;;;;3.13;1.30;;;17.60;99.90;;;;;;5104101;28;20180;-76
2023/05/17 12:24:09;;;;;;;4.03;1.77;;;17.60;99.90;;;;;;5090888;28;20192;-82
2023/05/17 12:26:44;;;;;;;3.95;2.03;;;17.40;99.90;;;;;;5085935;28;20616;-75
2023/05/17 12:29:12;;;;;;;5.00;1.90;;;17.60;99.90;;;;;;5107923;28;20264;-82
2023/05/17 12:31:41;;;;;;;3.40;1.50;;;17.70;99.90;;;;;;5097554;28;20187;-82
2023/05/17 12:34:08;;;;;;;4.78;1.40;;;17.80;99.90;;;;;;5098214;28;20537;-81
2023/05/17 12:36:34;;;;;;;2.00;1.50;;;18.10;99.90;;;;;;5106268;28;20228;-81
2023/05/17 12:39:01;;;;;;;1.75;1.52;;;18.00;99.90;;;;;;5102843;28;20195;-79
2023/05/17 12:41:28;;;;;;;2.72;1.70;;;18.00;99.90;;;;;;5070334;28;20185;-79
2023/05/17 12:43:53;;;;;;;3.95;1.35;;;18.00;99.90;;;;;;5097388;28;20229;-79